createdAt,value
2023-03-13T00:02:03.916Z,64.35
2023-03-13T00:04:33.894Z,64.18
2023-03-13T00:07:02.787Z,64.17
2023-03-13T00:09:35.004Z,65.40
2023-03-13T00:12:08.207Z,65.96
2023-03-13T00:14:40.097Z,65.92
2023-03-13T00:17:25.608Z,65.93
2023-03-13T00:19:53.808Z,66.05
2023-03-13T00:22:23.608Z,66.48
2023-03-13T00:24:53.066Z,66.73
2023-03-13T00:27:29.612Z,66.44
2023-03-13T00:30:00.405Z,66.17
2023-03-13T00:32:31.047Z,66.55
2023-03-13T00:35:03.016Z,66.33
2023-03-13T00:37:40.936Z,65.74
2023-03-13T00:40:13.314Z,65.56
2023-03-13T00:42:42.916Z,65.39
2023-03-13T00:45:18.239Z,65.21
2023-03-13T00:47:57.946Z,65.60
2023-03-13T00:50:26.812Z,65.72
2023-03-13T00:52:56.503Z,65.01
2023-03-13T00:55:27.647Z,64.68
2023-03-13T00:57:58.265Z,64.31
2023-03-13T01:00:29.719Z,64.59
2023-03-13T01:03:01.632Z,64.32
2023-03-13T01:05:31.030Z,64.87
2023-03-13T01:08:04.248Z,64.90
2023-03-13T01:10:35.190Z,66.00
2023-03-13T01:13:08.068Z,65.52
2023-03-13T01:15:39.844Z,65.83
2023-03-13T01:18:26.283Z,66.08
2023-03-13T01:20:58.259Z,66.01
2023-03-13T01:23:28.373Z,66.78
2023-03-13T01:26:03.544Z,67.00
2023-03-13T01:28:40.894Z,66.86
2023-03-13T01:31:20.700Z,67.56
2023-03-13T01:34:01.257Z,67.03
2023-03-13T01:36:33.686Z,67.30
2023-03-13T01:39:05.490Z,67.64
2023-03-13T01:41:38.526Z,68.00
2023-03-13T01:44:13.512Z,66.86
2023-03-13T01:46:43.554Z,67.29
2023-03-13T01:49:45.048Z,68.25
2023-03-13T01:52:32.209Z,68.37
2023-03-13T01:55:26.660Z,68.38
2023-03-13T01:58:00.712Z,68.36
2023-03-13T02:00:35.332Z,68.26
2023-03-13T02:03:11.638Z,68.18
2023-03-13T02:05:47.155Z,68.67
2023-03-13T02:08:26.318Z,68.20
2023-03-13T02:11:05.243Z,69.01
2023-03-13T02:13:33.961Z,69.23
2023-03-13T02:16:13.592Z,69.66
2023-03-13T02:18:46.901Z,69.80
2023-03-13T02:21:32.035Z,70.10
2023-03-13T02:24:07.986Z,69.41
2023-03-13T02:26:42.893Z,69.55
2023-03-13T02:29:18.978Z,69.89
2023-03-13T02:31:56.159Z,70.07
2023-03-13T02:34:31.544Z,70.34
2023-03-13T02:37:03.258Z,70.27
2023-03-13T02:39:40.911Z,71.19
2023-03-13T02:42:18.910Z,70.49
2023-03-13T02:44:51.498Z,70.50
2023-03-13T02:47:26.594Z,70.83
2023-03-13T02:50:05.460Z,71.00
2023-03-13T02:52:46.354Z,70.39
2023-03-13T02:55:26.025Z,70.12
2023-03-13T02:57:56.663Z,70.16
2023-03-13T03:00:28.328Z,70.45
2023-03-13T03:02:59.656Z,70.23
2023-03-13T03:05:36.352Z,70.83
2023-03-13T03:08:07.331Z,70.69
2023-03-13T03:10:45.557Z,70.89
2023-03-13T03:13:21.446Z,71.83
2023-03-13T03:16:05.959Z,71.97
2023-03-13T03:18:35.374Z,72.33
2023-03-13T03:21:09.464Z,73.03
2023-03-13T03:23:52.287Z,72.34
2023-03-13T03:26:21.270Z,72.18
2023-03-13T03:28:57.356Z,72.27
2023-03-13T03:31:32.138Z,72.53
2023-03-13T03:34:01.601Z,72.40
2023-03-13T03:36:31.270Z,72.08
2023-03-13T03:39:05.360Z,72.44
2023-03-13T03:41:35.852Z,71.71
2023-03-13T03:44:07.975Z,71.57
2023-03-13T03:46:57.491Z,71.57
2023-03-13T03:49:38.174Z,71.54
2023-03-13T03:52:15.339Z,71.53
2023-03-13T03:54:51.953Z,70.91
2023-03-13T03:57:21.567Z,70.86
2023-03-13T03:59:53.998Z,70.25
2023-03-13T04:02:25.659Z,70.21
2023-03-13T04:04:58.001Z,69.68
2023-03-13T04:07:33.276Z,69.43
2023-03-13T04:10:03.691Z,68.76
2023-03-13T04:12:39.148Z,68.42
2023-03-13T04:15:15.997Z,68.08
2023-03-13T04:17:47.421Z,67.66
2023-03-13T04:20:18.546Z,67.70
2023-03-13T04:22:48.863Z,66.84
2023-03-13T04:25:20.682Z,66.95
2023-03-13T04:27:53.557Z,66.91
2023-03-13T04:30:37.846Z,66.86
2023-03-13T04:33:09.513Z,65.93
2023-03-13T04:36:16.445Z,65.25
2023-03-13T04:39:10.779Z,65.25
2023-03-13T04:42:03.743Z,64.23
2023-03-13T04:45:03.250Z,63.06
2023-03-13T04:48:05.879Z,63.40
2023-03-13T04:50:55.492Z,63.67
2023-03-13T04:53:54.413Z,63.96
2023-03-13T04:56:44.370Z,63.48
2023-03-13T04:59:33.025Z,63.69
2023-03-13T05:02:28.503Z,64.39
2023-03-13T05:05:09.901Z,64.41
2023-03-13T05:07:58.474Z,64.56
2023-03-13T05:10:48.460Z,64.32
2023-03-13T05:13:46.226Z,65.06
2023-03-13T05:16:43.624Z,64.99
2023-03-13T05:19:35.408Z,65.03
2023-03-13T05:22:41.993Z,65.03
2023-03-13T05:25:38.681Z,64.96
2023-03-13T05:28:34.132Z,65.51
2023-03-13T05:31:25.211Z,65.33
2023-03-13T05:34:14.806Z,65.01
2023-03-13T05:37:11.603Z,65.55
2023-03-13T05:39:50.496Z,65.48
2023-03-13T05:42:43.104Z,65.79
2023-03-13T05:45:37.636Z,65.87
2023-03-13T05:48:40.721Z,65.92
2023-03-13T05:51:42.604Z,65.83
2023-03-13T05:54:45.773Z,65.51
2023-03-13T05:57:37.110Z,65.44
2023-03-13T06:00:33.004Z,65.95
2023-03-13T06:03:26.441Z,65.22
2023-03-13T06:06:00.054Z,65.33
2023-03-13T06:08:40.845Z,65.18
2023-03-13T06:11:13.009Z,65.40
2023-03-13T06:13:43.944Z,65.64
2023-03-13T06:16:33.734Z,65.68
2023-03-13T06:19:37.653Z,65.31
2023-03-13T06:22:12.427Z,65.33
2023-03-13T06:24:46.134Z,65.73
2023-03-13T06:27:19.146Z,65.60
2023-03-13T06:29:52.721Z,65.77
2023-03-13T06:32:23.746Z,65.50
2023-03-13T06:35:11.950Z,65.08
2023-03-13T06:37:44.361Z,64.82
2023-03-13T06:40:21.803Z,64.88
2023-03-13T06:42:53.177Z,65.12
2023-03-13T06:45:25.974Z,64.66
2023-03-13T06:47:55.419Z,64.87
2023-03-13T06:50:29.586Z,65.38
2023-03-13T06:53:04.054Z,65.31
2023-03-13T06:55:32.534Z,66.73
2023-03-13T06:58:01.660Z,66.24
2023-03-13T07:00:38.356Z,66.11
2023-03-13T07:03:08.214Z,65.96
2023-03-13T07:05:37.529Z,65.34
2023-03-13T07:08:09.518Z,65.15
2023-03-13T07:10:38.291Z,65.13
2023-03-13T07:13:07.648Z,64.81
2023-03-13T07:15:39.632Z,64.24
2023-03-13T07:18:17.753Z,63.59
2023-03-13T07:20:48.997Z,63.28
2023-03-13T07:23:23.485Z,62.59
2023-03-13T07:25:59.032Z,61.66
2023-03-13T07:28:37.786Z,61.84
2023-03-13T07:31:15.847Z,61.39
2023-03-13T07:33:48.849Z,61.51
2023-03-13T07:36:22.393Z,60.92
2023-03-13T07:39:03.064Z,60.49
2023-03-13T07:41:31.273Z,60.30
2023-03-13T07:44:02.075Z,60.09
2023-03-13T07:46:31.750Z,59.85
2023-03-13T07:49:01.714Z,59.37
2023-03-13T07:51:42.550Z,59.27
2023-03-13T07:54:21.154Z,58.59
2023-03-13T07:56:52.023Z,58.27
2023-03-13T07:59:21.609Z,58.37
2023-03-13T08:02:03.037Z,57.44
2023-03-13T08:04:34.856Z,57.29
2023-03-13T08:07:04.323Z,56.98
2023-03-13T08:09:45.511Z,56.82
2023-03-13T08:12:14.871Z,56.45
2023-03-13T08:14:49.277Z,56.62
2023-03-13T08:17:24.821Z,56.54
2023-03-13T08:19:53.177Z,56.20
2023-03-13T08:22:24.497Z,56.22
2023-03-13T08:24:55.463Z,56.66
2023-03-13T08:27:25.229Z,56.58
2023-03-13T08:29:54.402Z,57.00
2023-03-13T08:32:37.904Z,57.15
2023-03-13T08:35:09.652Z,57.43
2023-03-13T08:37:38.875Z,57.26
2023-03-13T08:40:13.808Z,57.54
2023-03-13T08:42:45.298Z,57.20
2023-03-13T08:45:20.261Z,57.67
2023-03-13T08:47:59.196Z,57.04
2023-03-13T08:50:29.814Z,57.05
2023-03-13T08:52:59.096Z,56.74
2023-03-13T08:55:30.089Z,56.86
2023-03-13T08:58:08.896Z,56.15
2023-03-13T09:00:39.809Z,55.30
2023-03-13T09:03:11.734Z,55.16
2023-03-13T09:05:55.102Z,55.42
2023-03-13T09:08:37.342Z,55.18
2023-03-13T09:11:09.470Z,54.80
2023-03-13T09:13:42.771Z,54.75
2023-03-13T09:16:13.638Z,54.95
2023-03-13T09:18:44.991Z,54.62
2023-03-13T09:21:17.539Z,54.14
2023-03-13T09:23:47.702Z,53.79
2023-03-13T09:26:22.670Z,53.25
2023-03-13T09:28:51.647Z,52.53
2023-03-13T09:31:26.212Z,52.50
2023-03-13T09:33:59.285Z,52.18
2023-03-13T09:36:41.555Z,51.92
2023-03-13T09:39:09.746Z,51.33
2023-03-13T09:41:46.783Z,51.38
2023-03-13T09:44:20.720Z,50.95
2023-03-13T09:47:00.841Z,50.24
2023-03-13T09:49:36.472Z,49.77
2023-03-13T09:52:18.179Z,49.97
2023-03-13T09:54:52.614Z,49.81
2023-03-13T09:57:28.484Z,49.01
2023-03-13T10:00:00.712Z,48.94
2023-03-13T10:02:36.302Z,48.68
2023-03-13T10:05:21.550Z,48.71
2023-03-13T10:07:52.608Z,49.20
2023-03-13T10:10:30.766Z,48.87
2023-03-13T10:13:13.395Z,48.93
2023-03-13T10:15:46.337Z,48.60
2023-03-13T10:18:22.417Z,48.64
2023-03-13T10:21:05.219Z,48.55
2023-03-13T10:23:52.850Z,48.52
2023-03-13T10:26:29.839Z,48.49
2023-03-13T10:29:21.214Z,48.97
2023-03-13T10:32:00.332Z,48.15
2023-03-13T10:34:34.890Z,48.37
2023-03-13T10:37:09.551Z,47.75
2023-03-13T10:39:38.938Z,47.97
2023-03-13T10:42:25.690Z,47.72
2023-03-13T10:44:58.258Z,48.08
2023-03-13T10:47:31.578Z,47.83
2023-03-13T10:50:00.538Z,47.90
2023-03-13T10:52:48.692Z,47.75
2023-03-13T10:55:23.550Z,47.62
2023-03-13T10:58:04.652Z,47.68
2023-03-13T11:00:39.858Z,47.59
2023-03-13T11:03:25.471Z,47.36
2023-03-13T11:06:05.354Z,47.44
2023-03-13T11:08:49.400Z,47.47
2023-03-13T11:11:23.453Z,47.23
2023-03-13T11:13:53.056Z,47.19
2023-03-13T11:16:32.995Z,47.25
2023-03-13T11:19:27.406Z,47.09
2023-03-13T11:22:07.616Z,46.85
2023-03-13T11:24:48.128Z,46.18
2023-03-13T11:27:24.618Z,45.70
2023-03-13T11:30:02.975Z,45.66
2023-03-13T11:32:42.466Z,45.51
2023-03-13T11:35:45.054Z,45.31
2023-03-13T11:38:23.399Z,45.26
2023-03-13T11:41:03.677Z,44.47
2023-03-13T11:43:46.610Z,44.79
2023-03-13T11:46:43.498Z,44.88
2023-03-13T11:49:45.737Z,44.96
2023-03-13T11:52:23.176Z,45.04
2023-03-13T11:55:24.490Z,45.32
2023-03-13T11:58:08.253Z,45.10
2023-03-13T12:00:40.723Z,45.44
2023-03-13T12:03:24.729Z,45.46
2023-03-13T12:06:01.075Z,45.49
2023-03-13T12:08:33.322Z,45.30
2023-03-13T12:11:08.319Z,45.38
2023-03-13T12:13:45.804Z,45.32
2023-03-13T12:16:20.935Z,45.39
2023-03-13T12:18:53.437Z,45.19
2023-03-13T12:21:24.993Z,45.22
2023-03-13T12:24:02.199Z,44.60
2023-03-13T12:26:41.150Z,44.84
2023-03-13T12:29:20.398Z,44.26
2023-03-13T12:31:57.586Z,44.12
2023-03-13T12:34:36.148Z,44.44
2023-03-13T12:37:17.930Z,44.30
2023-03-13T12:39:52.400Z,44.02
2023-03-13T12:42:38.375Z,44.11
2023-03-13T12:45:10.610Z,44.41
2023-03-13T12:47:58.452Z,44.39
2023-03-13T12:50:41.792Z,44.28
2023-03-13T12:53:47.694Z,44.36
2023-03-13T12:57:10.607Z,44.28
2023-03-13T12:59:44.103Z,44.81
2023-03-13T13:02:25.813Z,44.73
2023-03-13T13:04:58.619Z,45.07
2023-03-13T13:07:31.244Z,44.95
2023-03-13T13:10:20.802Z,44.95
2023-03-13T13:13:30.281Z,45.00
2023-03-13T13:16:07.767Z,45.60
2023-03-13T13:18:40.314Z,45.33
2023-03-13T13:21:26.623Z,45.68
2023-03-13T13:24:37.663Z,45.48
2023-03-13T13:27:20.133Z,45.77
2023-03-13T13:30:24.071Z,45.45
2023-03-13T13:32:54.179Z,45.64
2023-03-13T13:35:35.841Z,45.58
2023-03-13T13:38:43.610Z,45.95
2023-03-13T13:41:47.078Z,45.64
2023-03-13T13:44:39.292Z,45.73
2023-03-13T13:47:26.802Z,45.50
2023-03-13T13:49:58.109Z,45.66
2023-03-13T13:52:43.507Z,44.82
2023-03-13T13:55:35.927Z,45.06
2023-03-13T13:58:07.216Z,45.13
2023-03-13T14:00:46.844Z,44.97
2023-03-13T14:03:29.114Z,44.76
2023-03-13T14:06:01.755Z,44.76
2023-03-13T14:08:37.876Z,44.61
2023-03-13T14:11:11.282Z,44.25
2023-03-13T14:13:40.998Z,44.33
2023-03-13T14:16:26.796Z,44.39
2023-03-13T14:19:03.495Z,44.08
2023-03-13T14:21:34.685Z,43.97
2023-03-13T14:24:23.069Z,43.52
2023-03-13T14:26:54.277Z,43.06
2023-03-13T14:29:35.374Z,42.81
2023-03-13T14:32:15.909Z,43.15
2023-03-13T14:34:47.400Z,43.02
2023-03-13T14:37:41.601Z,42.33
2023-03-13T14:40:33.332Z,42.30
2023-03-13T14:43:05.329Z,42.44
2023-03-13T14:45:44.129Z,42.85
2023-03-13T14:48:22.882Z,42.68
2023-03-13T14:51:08.869Z,42.59
2023-03-13T14:53:56.824Z,42.46
2023-03-13T14:56:44.870Z,42.28
2023-03-13T14:59:29.557Z,42.46
2023-03-13T15:02:07.275Z,42.74
2023-03-13T15:05:01.541Z,41.97
2023-03-13T15:07:40.955Z,42.15
2023-03-13T15:10:23.628Z,42.59
2023-03-13T15:12:57.978Z,42.47
2023-03-13T15:15:26.415Z,42.39
2023-03-13T15:17:57.205Z,42.62
2023-03-13T15:20:25.419Z,42.73
2023-03-13T15:22:55.276Z,42.72
2023-03-13T15:25:29.871Z,42.89
2023-03-13T15:27:59.841Z,43.11
2023-03-13T15:30:29.071Z,42.84
2023-03-13T15:32:59.557Z,42.56
2023-03-13T15:35:37.169Z,42.80
2023-03-13T15:38:11.467Z,42.88
2023-03-13T15:40:44.996Z,43.17
2023-03-13T15:43:28.882Z,43.07
2023-03-13T15:45:58.064Z,43.19
2023-03-13T15:48:28.816Z,43.12
2023-03-13T15:50:59.814Z,43.14
2023-03-13T15:53:31.310Z,43.22
2023-03-13T15:56:06.841Z,43.46
2023-03-13T15:58:51.127Z,43.21
2023-03-13T16:01:25.274Z,43.13
2023-03-13T16:03:55.825Z,43.61
2023-03-13T16:06:31.182Z,43.92
2023-03-13T16:09:03.018Z,44.19
2023-03-13T16:11:31.999Z,44.23
2023-03-13T16:14:03.060Z,44.24
2023-03-13T16:16:37.298Z,44.44
2023-03-13T16:19:08.212Z,44.56
2023-03-13T16:21:40.373Z,44.74
2023-03-13T16:24:09.735Z,44.69
2023-03-13T16:26:38.267Z,44.59
2023-03-13T16:29:20.663Z,44.38
2023-03-13T16:31:51.169Z,44.79
2023-03-13T16:34:27.025Z,44.94
2023-03-13T16:37:07.845Z,45.25
2023-03-13T16:39:36.031Z,45.37
2023-03-13T16:42:06.434Z,44.92
2023-03-13T16:44:41.639Z,45.54
2023-03-13T16:47:22.055Z,45.69
2023-03-13T16:49:53.410Z,45.82
2023-03-13T16:52:26.440Z,46.14
2023-03-13T16:54:55.090Z,46.07
2023-03-13T16:57:26.726Z,46.23
2023-03-13T17:00:01.988Z,46.65
2023-03-13T17:02:33.553Z,46.48
2023-03-13T17:05:04.769Z,46.44
2023-03-13T17:07:34.529Z,46.53
2023-03-13T17:10:06.770Z,46.51
2023-03-13T17:12:36.855Z,46.66
2023-03-13T17:15:15.146Z,46.72
2023-03-13T17:17:51.643Z,46.68
2023-03-13T17:20:23.060Z,46.93
2023-03-13T17:22:56.622Z,47.09
2023-03-13T17:25:41.069Z,47.09
2023-03-13T17:28:25.204Z,46.95
2023-03-13T17:31:04.958Z,47.08
2023-03-13T17:33:37.569Z,47.23
2023-03-13T17:36:20.734Z,47.41
2023-03-13T17:38:53.196Z,47.68
2023-03-13T17:41:32.716Z,47.71
2023-03-13T17:44:07.549Z,47.76
2023-03-13T17:46:41.209Z,47.75
2023-03-13T17:49:14.377Z,48.09
2023-03-13T17:51:49.893Z,48.23
2023-03-13T17:54:24.144Z,48.08
2023-03-13T17:56:56.323Z,48.37
2023-03-13T17:59:29.373Z,48.72
2023-03-13T18:02:07.354Z,48.79
2023-03-13T18:04:49.005Z,48.90
2023-03-13T18:07:25.964Z,48.97
2023-03-13T18:09:55.455Z,49.01
2023-03-13T18:12:42.436Z,48.82
2023-03-13T18:15:17.428Z,48.88
2023-03-13T18:18:13.127Z,49.59
2023-03-13T18:20:47.606Z,49.15
2023-03-13T18:23:23.852Z,49.52
2023-03-13T18:26:01.979Z,49.64
2023-03-13T18:28:49.609Z,49.38
2023-03-13T18:31:32.936Z,49.41
2023-03-13T18:34:18.787Z,49.72
2023-03-13T18:36:51.718Z,49.68
2023-03-13T18:39:28.552Z,50.10
2023-03-13T18:42:00.193Z,50.19
2023-03-13T18:44:30.264Z,50.25
2023-03-13T18:47:15.914Z,50.19
2023-03-13T18:49:56.015Z,50.18
2023-03-13T18:52:37.760Z,50.06
2023-03-13T18:55:18.213Z,50.49
2023-03-13T18:57:52.886Z,50.26
2023-03-13T19:00:37.614Z,50.16
2023-03-13T19:03:11.211Z,50.16
2023-03-13T19:05:49.529Z,50.45
2023-03-13T19:08:21.892Z,50.77
2023-03-13T19:10:54.764Z,50.71
2023-03-13T19:16:20.769Z,50.91
2023-03-13T19:19:05.009Z,50.76
2023-03-13T19:21:46.874Z,50.83
2023-03-13T19:24:20.679Z,51.15
2023-03-13T19:27:03.785Z,51.17
2023-03-13T19:29:46.054Z,51.35
2023-03-13T19:32:29.312Z,51.27
2023-03-13T19:35:09.702Z,49.16
2023-03-13T19:37:42.968Z,50.73
2023-03-13T19:40:31.548Z,51.02
2023-03-13T19:43:12.956Z,51.48
2023-03-13T19:45:53.313Z,51.98
2023-03-13T19:48:33.001Z,51.69
2023-03-13T19:51:27.828Z,51.77
2023-03-13T19:54:16.022Z,51.80
2023-03-13T19:56:48.713Z,52.00
2023-03-13T19:59:24.466Z,51.81
2023-03-13T20:02:09.684Z,52.63
2023-03-13T20:04:50.999Z,52.86
2023-03-13T20:07:36.233Z,53.07
2023-03-13T20:10:22.616Z,53.00
2023-03-13T20:13:03.239Z,53.52
2023-03-13T20:15:40.264Z,53.78
2023-03-13T20:18:15.217Z,53.82
2023-03-13T20:20:49.939Z,54.07
2023-03-13T20:23:31.754Z,53.97
2023-03-13T20:26:18.884Z,54.53
2023-03-13T20:28:54.008Z,54.64
2023-03-13T20:31:40.896Z,54.83
2023-03-13T20:34:22.804Z,55.07
2023-03-13T20:36:57.918Z,54.94
2023-03-13T20:39:33.480Z,55.22
2023-03-13T20:42:17.103Z,55.18
2023-03-13T20:45:10.779Z,55.71
2023-03-13T20:47:47.120Z,55.85
2023-03-13T20:50:27.572Z,55.38
2023-03-13T20:52:57.850Z,55.64
2023-03-13T20:55:32.922Z,56.08
2023-03-13T20:58:25.075Z,55.78
2023-03-13T21:01:07.463Z,56.27
2023-03-13T21:03:55.217Z,56.33
2023-03-13T21:06:31.773Z,56.24
2023-03-13T21:09:24.204Z,56.49
2023-03-13T21:12:07.691Z,57.08
2023-03-13T21:15:06.777Z,56.97
2023-03-13T21:17:46.831Z,57.50
2023-03-13T21:20:22.236Z,57.55
2023-03-13T21:22:50.541Z,57.62
2023-03-13T21:25:31.341Z,57.55
2023-03-13T21:28:06.992Z,57.76
2023-03-13T21:30:42.374Z,57.76
2023-03-13T21:33:23.251Z,57.83
2023-03-13T21:36:00.893Z,58.14
2023-03-13T21:38:39.550Z,57.99
2023-03-13T21:41:17.044Z,58.49
2023-03-13T21:43:54.652Z,58.20
2023-03-13T21:46:38.133Z,58.41
2023-03-13T21:49:12.419Z,58.94
2023-03-13T21:51:42.057Z,59.01
2023-03-13T21:54:11.761Z,58.89
2023-03-13T21:56:41.977Z,59.15
2023-03-13T21:59:16.428Z,59.49
2023-03-13T22:01:58.324Z,59.76
2023-03-13T22:04:34.106Z,60.07
2023-03-13T22:07:10.698Z,61.14
2023-03-13T22:09:46.931Z,61.58
2023-03-13T22:12:26.706Z,61.50
2023-03-13T22:15:02.600Z,61.73
2023-03-13T22:17:43.829Z,62.04
2023-03-13T22:20:21.366Z,62.03
2023-03-13T22:22:55.593Z,61.72
2023-03-13T22:25:31.824Z,62.52
2023-03-13T22:28:12.265Z,62.16
2023-03-13T22:30:45.084Z,62.97
2023-03-13T22:33:17.281Z,62.86
2023-03-13T22:35:55.585Z,62.95
2023-03-13T22:38:32.736Z,63.36
2023-03-13T22:41:08.265Z,63.47
2023-03-13T22:43:36.884Z,63.76
2023-03-13T22:46:07.200Z,63.27
2023-03-13T22:48:44.333Z,63.56
2023-03-13T22:51:15.733Z,64.30
2023-03-13T22:53:44.796Z,64.59
2023-03-13T22:56:21.191Z,64.33
2023-03-13T22:58:55.280Z,64.59
2023-03-13T23:01:35.321Z,64.98
2023-03-13T23:04:07.967Z,64.92
2023-03-13T23:06:40.816Z,65.35
2023-03-13T23:09:18.529Z,65.48
2023-03-13T23:11:57.778Z,65.25
2023-03-13T23:14:36.435Z,65.07
2023-03-13T23:17:06.246Z,65.18
2023-03-13T23:19:45.853Z,64.81
2023-03-13T23:22:22.216Z,65.25
2023-03-13T23:24:54.754Z,65.62
2023-03-13T23:27:25.399Z,65.47
2023-03-13T23:29:58.666Z,65.22
2023-03-13T23:32:29.583Z,65.58
2023-03-13T23:35:12.917Z,65.63
2023-03-13T23:37:53.949Z,65.56
2023-03-13T23:40:25.597Z,65.52
2023-03-13T23:42:57.425Z,65.71
2023-03-13T23:45:26.858Z,66.05
2023-03-13T23:47:56.558Z,65.88
2023-03-13T23:50:34.095Z,65.82
2023-03-13T23:53:03.836Z,66.26
2023-03-13T23:55:32.538Z,65.85
2023-03-13T23:58:04.231Z,66.27
